• Join FlightAware (Why Join?)
  • Login
  • US Flag 
12:52AM EDT


 

Airport Tracker/Info


-or-


 

Live Flight TrackerFlight Track Log ✈ RPA3275 ✈ 17-Jul-2013 ✈ KALB - KPHL

Flight Track Log - Related Links

Times and Time Zones

All times are in EDT time to prevent confusion due to time zone crossing. See the RPA3275 flight status page for this flight to view local times or setup timezone preferences in your user account.

Time Position Orientation Groundspeed Altitude Reporting Facility
EDT Latitude Longitude Course Direction KTS MPH feet Rate Location/Type
07:07AM 42.7653 -73.8061 220° Southwest 149 171 1,500  Level Boston Center
07:07AM 42.7903 -73.8150 345° North 169 194 2,200 1,980 Climbing Boston Center
07:08AM 42.8000 -73.8692 284° West 226 260 4,000 2,700 Climbing Boston Center
07:09AM 42.7333 -74.1567 270° West  Level FlightAware Approximate
07:09AM 42.7861 -73.9706 259° West 279 321 6,900  Level Boston Center
07:10AM 42.7333 -74.2756 270° West  Level FlightAware Approximate
07:10AM 42.7742 -74.0722 261° West 285 328 10,100  Level Boston Center
07:11AM 42.6784 -74.3765 220° Southwest  Level FlightAware Approximate
07:11AM 42.7600 -74.1850 260° West 298 343 12,100  Level Boston Center
07:12AM 42.6034 -74.4608 220° Southwest  Level FlightAware Approximate
07:12AM 42.7414 -74.3058 258° West 322 371 14,400  Level Boston Center
07:13AM 42.6692 -74.3997 224° Southwest 344 396 16,000 780 Climbing Boston Center
07:14AM 42.5989 -74.4767 219° Southwest 339 390 16,000  Level Boston Center
07:15AM 42.5286 -74.5589 221° Southwest 334 384 16,000  Level Boston Center
07:16AM 42.4669 -74.6300 220° Southwest 334 384 16,000  Level Boston Center
07:17AM 42.3881 -74.7200 220° Southwest 334 384 16,000  Level Boston Center
07:18AM 42.3239 -74.7961 221° Southwest 334 384 16,000  Level Boston Center
07:20AM 42.1525 -74.9836 219° Southwest 336 387 16,100  Climbing New York Center
07:21AM 42.0667 -75.0536 211° Southwest 341 392 16,100  Level New York Center
07:22AM 41.9939 -75.1131 211° Southwest 336 387 16,100  Level New York Center
07:23AM 41.9081 -75.1825 211° Southwest 331 381 16,100  Level New York Center
07:24AM 41.8306 -75.2469 212° Southwest 331 381 16,100 -600 Level New York Center
07:25AM 41.7469 -75.3108 210° Southwest 339 390 15,000 -1,380 Descending New York Center
07:26AM 41.6761 -75.3672 211° Southwest 345 397 13,400 -1,500 Descending New York Center
07:27AM 41.6008 -75.4314 213° Southwest 332 382 12,000 -720 Descending New York Center
07:28AM 41.5147 -75.4975 210° Southwest 332 382 12,000  Level New York Center
07:29AM 41.4394 -75.5583 211° Southwest 332 382 12,000  Level New York Center
07:30AM 41.3619 -75.6192 211° Southwest 327 376 12,000  Level New York Center
07:31AM 41.2911 -75.6750 211° Southwest 327 376 12,000  Level New York Center
07:32AM 41.2033 -75.6797 182° South 304 350 12,000  Level New York Center
07:33AM 41.1067 -75.6478 166° South 309 356 12,000  Level New York Center
07:34AM 41.0183 -75.6194 166° South 332 382 12,000  Level New York Center
07:35AM 40.9319 -75.5914 166° South 332 382 12,000  Level New York Center
07:36AM 40.8519 -75.5636 165° South 337 388 12,000  Level New York Center
07:37AM 40.7656 -75.5358 166° South 332 382 12,000  Level New York Center
07:38AM 40.6669 -75.5014 165° South 332 382 12,000  Level New York Center
07:39AM 40.5806 -75.4736 166° South 333 383 12,000 -660 Level New York Center
07:40AM 40.4939 -75.4458 166° South 333 383 10,700 -1,080 Descending New York Center
07:41AM 40.4100 -75.4075 161° South 333 383 9,900 -1,080 Descending New York Center
07:42AM 40.3347 -75.3644 156° South 317 365 8,600 -1,380 Descending New York Center
07:43AM 40.2592 -75.3214 156° South 297 342 7,200 -900 Descending New York Center
07:44AM 40.1917 -75.2869 159° South 266 306 6,800 -600 Descending New York Center
07:45AM 40.1328 -75.2506 155° Southeast 245 282 6,000 -420 Descending New York Center
07:46AM 40.0736 -75.2169 157° South 240 276 6,000  Level New York Center
07:47AM 40.0000 -75.1833 161° South 242 278 6,000 -60 Level Philadelphia TRACON
07:48AM 39.9833 -75.1333 113° Southeast 230 265 5,900 -780 Descending Philadelphia TRACON
07:49AM 40.0000 -75.0500 75° East 227 261 4,600 -1,140 Descending Philadelphia TRACON
07:50AM 40.0000 -74.9667 90° East 222 255 3,700 -960 Descending Philadelphia TRACON
07:51AM 39.9667 -74.9833 201° Southwest 175 201 2,800 -900 Descending Philadelphia TRACON
07:52AM 39.9333 -75.0333 229° Southwest 180 207 2,000 -480 Descending Philadelphia TRACON
07:53AM 39.9000 -75.1000 237° Southwest 173 199 1,900 -420 Descending Philadelphia TRACON
07:54AM 39.9000 -75.1333 270° West 135 155 1,200 -780 Descending Philadelphia TRACON
07:55AM 39.8833 -75.1833 247° West 131 151 600 -720 Descending Philadelphia TRACON